createdAt,value
2018-09-18T04:07:30.663Z,11.13
2018-09-18T04:17:33.633Z,10.30
2018-09-18T04:27:42.646Z,10.73
2018-09-18T04:37:45.139Z,11.07
2018-09-18T04:47:56.124Z,11.30
2018-09-18T04:58:17.056Z,10.77
2018-09-18T05:08:25.962Z,10.77
2018-09-18T05:18:29.486Z,11.10
2018-09-18T05:28:33.027Z,10.83
2018-09-18T05:38:35.478Z,12.07
2018-09-18T05:48:43.148Z,12.67
2018-09-18T05:58:46.098Z,13.43
2018-09-18T06:08:58.751Z,13.77
2018-09-18T06:19:01.280Z,12.90
2018-09-18T06:29:03.812Z,11.57
2018-09-18T06:49:36.072Z,13.50
2018-09-18T06:59:39.034Z,12.90
2018-09-18T07:09:48.452Z,13.53
2018-09-18T07:19:51.090Z,14.90
2018-09-18T07:29:55.076Z,13.27
2018-09-18T07:40:02.444Z,14.30
2018-09-18T07:50:05.069Z,13.60
2018-09-18T08:00:10.523Z,14.50
2018-09-18T08:10:13.005Z,15.93
2018-09-18T08:41:18.655Z,15.10
2018-09-18T08:51:21.110Z,14.40
2018-09-18T09:01:35.931Z,13.83
2018-09-18T09:11:39.424Z,14.57
2018-09-18T09:21:49.325Z,15.37
2018-09-18T09:31:52.778Z,14.60
2018-09-18T09:41:56.342Z,12.20
2018-09-18T09:52:01.957Z,10.40
2018-09-18T10:02:09.995Z,11.30
2018-09-18T10:12:18.298Z,11.37
2018-09-18T10:22:22.876Z,10.77
2018-09-18T10:32:25.479Z,10.70
2018-09-18T10:42:29.976Z,9.97
2018-09-18T10:52:32.466Z,8.57
2018-09-18T11:02:41.334Z,7.53
2018-09-18T11:12:43.851Z,9.30
2018-09-18T11:22:48.414Z,7.93
2018-09-18T11:32:52.119Z,6.90
2018-09-18T11:42:54.535Z,7.63
2018-09-18T11:53:02.022Z,8.57
2018-09-18T12:03:04.791Z,9.40
2018-09-18T12:13:08.273Z,9.80
2018-09-18T12:23:28.467Z,10.10
2018-09-18T12:33:38.424Z,8.90
2018-09-18T12:43:41.135Z,8.47
2018-09-18T12:53:43.717Z,10.70
2018-09-18T13:03:59.538Z,6.77
2018-09-18T13:14:03.128Z,6.07
2018-09-18T13:24:24.058Z,5.67
2018-09-18T13:34:32.229Z,6.07
2018-09-18T13:44:55.299Z,5.80
2018-09-18T14:05:33.307Z,5.43
2018-09-18T14:15:36.819Z,5.30
2018-09-18T14:25:39.332Z,5.37
2018-09-18T14:35:41.830Z,5.60
2018-09-18T14:45:44.351Z,6.27
2018-09-18T14:55:51.183Z,5.27
2018-09-18T15:05:58.925Z,5.30
2018-09-18T15:16:01.442Z,4.00
2018-09-18T15:26:06.484Z,4.50
2018-09-18T15:36:20.851Z,3.57
2018-09-18T15:46:46.846Z,3.37
2018-09-18T15:56:50.447Z,3.60
2018-09-18T16:06:53.271Z,5.40
2018-09-18T16:16:55.836Z,4.57
2018-09-18T16:27:02.988Z,4.10
2018-09-18T16:37:05.461Z,4.20
2018-09-18T16:47:08.055Z,3.70
2018-09-18T16:57:14.411Z,4.40
2018-09-18T17:07:16.917Z,4.07
2018-09-18T17:17:19.535Z,4.03
2018-09-18T17:27:22.075Z,4.97
2018-09-18T17:37:25.671Z,5.47
2018-09-18T17:47:30.169Z,5.97
2018-09-18T17:57:34.149Z,11.30
2018-09-18T18:07:39.447Z,9.50
2018-09-18T18:17:42.138Z,6.10
2018-09-18T18:27:45.188Z,5.63
2018-09-18T18:37:47.809Z,4.20
2018-09-18T18:47:50.825Z,4.93
2018-09-18T18:57:53.350Z,5.20
2018-09-18T19:07:55.905Z,5.13
2018-09-18T19:17:59.483Z,5.00
2018-09-18T19:28:02.184Z,6.63
2018-09-18T19:38:05.035Z,6.37
2018-09-18T19:48:07.947Z,7.10
2018-09-18T19:58:14.739Z,6.30
2018-09-18T20:08:17.382Z,6.87
2018-09-18T20:18:42.591Z,6.50
2018-09-18T20:28:57.748Z,6.60
2018-09-18T20:39:00.191Z,7.37
2018-09-18T20:59:08.655Z,7.40
2018-09-18T21:09:11.231Z,7.00
2018-09-18T21:19:13.776Z,6.43
2018-09-18T21:29:22.610Z,6.80
2018-09-18T22:00:27.007Z,6.80
2018-09-18T22:10:30.630Z,7.10
2018-09-18T22:20:37.443Z,7.20
2018-09-18T22:30:48.138Z,6.93
2018-09-18T22:40:50.589Z,6.67
2018-09-18T22:50:54.113Z,7.03
2018-09-18T23:00:57.681Z,7.43
2018-09-18T23:11:00.185Z,7.27
2018-09-18T23:21:15.418Z,7.60
2018-09-18T23:31:23.366Z,7.17
2018-09-18T23:41:25.849Z,7.70
